Check out our new BloomSky Weather System.

Active alerts


No alerts


Thunder radar  blitzortung!


Rain radar more information rain snow radar


Visit our other weather sites:

Template documentation
and downloads

And another site



Weather Underground History page Text

Daily Summary for January 2, 2017 Units:  Metric    English   Both
« Previous Day
Next Day »
Daily Weekly Monthly Yearly Custom
  High: Low: Average:
Temperature: -17.8 °C 11.8 °C 18.6 °C
Dew Point: -17.8 °C 10.9 °C 15.9 °C
Humidity: Humidity % 52 % 86 %
Wind Speed: 0 km/h 0 km/h 2.3 km/h
Wind Gust: 0 km/h - -
Wind:- - SW
Pressure: 0 hPa 1006.7 hPa -
Precipitation: 47.5 mm    
Historical Graphs
 
 
Tabular Data for January 2, 2017
Time Temperature Dew Point Pressure Wind Wind Speed Wind Gust Humidity Rainfall Rate (Hourly)
-17.8 °C -17.8 °C 0 hPa Calm     Humidity % 0 mm
00:02 19.1 °C 18.6 °C 1010.4 hPa Calm   1.6 km/h 97 % 0 mm
00:07 19.2 °C 18.9 °C 1010 hPa Calm   1.6 km/h 98 % 0 mm
00:12 19.2 °C 18.9 °C 1010 hPa Calm   1.6 km/h 98 % 0 mm
00:17 19.3 °C 19 °C 1010.4 hPa Calm   1.6 km/h 98 % 0 mm
00:22 19.3 °C 19 °C 1010.4 hPa Calm   1.6 km/h 98 % 0 mm
00:27 19.3 °C 19 °C 1010 hPa Calm   1.6 km/h 98 % 0 mm
00:32 19.4 °C 19.1 °C 1010 hPa Calm   1.6 km/h 98 % 0 mm
00:37 19.5 °C 19.2 °C 1010 hPa Calm   4.8 km/h 98 % 0 mm
00:42 19.6 °C 19.3 °C 1010 hPa Calm   4.8 km/h 98 % 0 mm
00:47 19.6 °C 19.3 °C 1010 hPa East 1.6 km/h 4.8 km/h 98 % 0 mm
00:52 19.6 °C 19.3 °C 1010 hPa Calm   4.8 km/h 98 % 0 mm
00:57 19.6 °C 19.3 °C 1010 hPa East 3.2 km/h 4.8 km/h 98 % 0 mm
01:02 19.7 °C 19.4 °C 1010 hPa Calm   4.8 km/h 98 % 0 mm
01:07 19.7 °C 19.4 °C 1010 hPa Calm   4.8 km/h 98 % 0 mm
01:12 19.7 °C 19.4 °C 1010 hPa Calm   4.8 km/h 98 % 0 mm
01:17 19.7 °C 19.4 °C 1009.7 hPa Calm   3.2 km/h 98 % 0 mm
01:22 19.8 °C 19.5 °C 1009.7 hPa East 1.6 km/h 6.4 km/h 98 % 0 mm
01:27 19.8 °C 19.5 °C 1009.7 hPa Calm   6.4 km/h 98 % 0 mm
01:32 19.8 °C 19.5 °C 1009.7 hPa ENE 1.6 km/h 6.4 km/h 98 % 0 mm
01:37 19.8 °C 19.5 °C 1009.7 hPa Calm   3.2 km/h 98 % 0 mm
01:42 19.8 °C 19.5 °C 1009.7 hPa Calm   3.2 km/h 98 % 0 mm
01:47 19.8 °C 19.5 °C 1009.7 hPa Calm   3.2 km/h 98 % 0 mm
01:52 19.9 °C 19.6 °C 1009.4 hPa ESE 1.6 km/h 3.2 km/h 98 % 0 mm
01:57 19.9 °C 19.6 °C 1009.4 hPa ESE 3.2 km/h 4.8 km/h 98 % 0 mm
02:02 19.9 °C 19.6 °C 1009.4 hPa Calm   4.8 km/h 98 % 0 mm
02:07 19.9 °C 19.6 °C 1009.4 hPa ESE 1.6 km/h 4.8 km/h 98 % 0 mm
02:12 19.9 °C 19.6 °C 1009.4 hPa Calm   3.2 km/h 98 % 0 mm
02:17 20 °C 19.8 °C 1009.4 hPa Calm   1.6 km/h 99 % 0 mm
02:22 20.1 °C 19.9 °C 1009 hPa Calm   1.6 km/h 99 % 0 mm
02:27 20 °C 19.8 °C 1009 hPa ESE 1.6 km/h 1.6 km/h 99 % 0 mm
02:32 20.1 °C 19.9 °C 1009 hPa Calm   1.6 km/h 99 % 0 mm
02:37 20.1 °C 19.9 °C 1009 hPa Calm   1.6 km/h 99 % 0 mm
02:42 20.2 °C 20 °C 1009 hPa Calm   3.2 km/h 99 % 0 mm
02:47 20.3 °C 20.1 °C 1008.7 hPa Calm   3.2 km/h 99 % 0 mm
02:52 20.3 °C 20.1 °C 1008.7 hPa ESE 1.6 km/h 4.8 km/h 99 % 0 mm
02:57 20.4 °C 20.2 °C 1008.7 hPa Calm   4.8 km/h 99 % 0 mm
03:02 20.4 °C 20.2 °C 1008.7 hPa Calm   4.8 km/h 99 % 0 mm
03:07 20.6 °C 20.4 °C 1008.4 hPa SE 1.6 km/h 4.8 km/h 99 % 0 mm
03:12 20.6 °C 20.4 °C 1008.4 hPa East 1.6 km/h 4.8 km/h 99 % 0 mm
03:17 20.6 °C 20.4 °C 1008.4 hPa SE 3.2 km/h 4.8 km/h 99 % 0 mm
03:22 20.7 °C 20.5 °C 1008.4 hPa ESE 1.6 km/h 4.8 km/h 99 % 0 mm
03:27 20.7 °C 20.5 °C 1008.4 hPa Calm   4.8 km/h 99 % 0 mm
03:33 20.8 °C 20.6 °C 1008.4 hPa East 3.2 km/h 4.8 km/h 99 % 0 mm
03:38 20.9 °C 20.7 °C 1008.4 hPa SE 1.6 km/h 4.8 km/h 99 % 0 mm
03:43 21 °C 20.8 °C 1008.4 hPa East 6.4 km/h 6.4 km/h 99 % 0 mm
03:48 21.2 °C 21 °C 1008 hPa SE 1.6 km/h 8 km/h 99 % 0 mm
03:53 21.3 °C 21.1 °C 1008 hPa SE 3.2 km/h 8 km/h 99 % 0 mm
03:58 21.4 °C 21.2 °C 1008 hPa SSE 3.2 km/h 8 km/h 99 % 0 mm
04:03 21.5 °C 21.3 °C 1008 hPa SSE 3.2 km/h 8 km/h 99 % 0 mm
04:08 21.6 °C 21.4 °C 1008 hPa SE 3.2 km/h 8 km/h 99 % 0 mm
04:13 21.6 °C 21.4 °C 1007.7 hPa SE 3.2 km/h 8 km/h 99 % 0 mm
04:18 21.6 °C 21.4 °C 1007.7 hPa ESE 4.8 km/h 8 km/h 99 % 0 mm
04:23 21.7 °C 21.5 °C 1007.7 hPa ESE 4.8 km/h 9.7 km/h 99 % 0 mm
04:28 21.7 °C 21.5 °C 1007.3 hPa ESE 6.4 km/h 9.7 km/h 99 % 0 mm
04:33 21.8 °C 21.6 °C 1007.3 hPa SE 3.2 km/h 16.1 km/h 99 % 0 mm
04:38 21.8 °C 21.6 °C 1007.3 hPa East 1.6 km/h 16.1 km/h 99 % 0 mm
04:43 21.9 °C 21.7 °C 1007 hPa East 12.9 km/h 16.1 km/h 99 % 0 mm
04:48 21.9 °C 21.7 °C 1007.3 hPa SSW 4.8 km/h 12.9 km/h 99 % 0 mm
04:53 21.9 °C 21.7 °C 1007.7 hPa SSE 1.6 km/h 12.9 km/h 99 % 0 mm
04:58 22 °C 21.8 °C 1007.3 hPa SE 3.2 km/h 12.9 km/h 99 % 0 mm
05:03 22.1 °C 21.9 °C 1007.3 hPa South 6.4 km/h 8 km/h 99 % 0 mm
05:08 22.1 °C 21.9 °C 1007.7 hPa South 6.4 km/h 11.3 km/h 99 % 0 mm
05:13 22.2 °C 22 °C 1007.7 hPa SSE 8 km/h 11.3 km/h 99 % 0 mm
05:18 22.2 °C 22 °C 1008.4 hPa SW 9.7 km/h 12.9 km/h 99 % 0 mm
05:23 22.2 °C 22 °C 1008.4 hPa SSW 4.8 km/h 12.9 km/h 99 % 0.25 mm
05:28 22.2 °C 22 °C 1008 hPa Calm   12.9 km/h 99 % 0.51 mm
05:33 22.2 °C 22 °C 1008 hPa Calm   12.9 km/h 99 % 0.76 mm
05:38 22.2 °C 22 °C 1008 hPa Calm   8 km/h 99 % 1.27 mm
05:43 22.2 °C 22 °C 1008.4 hPa SSW 1.6 km/h 8 km/h 99 % 1.78 mm
05:44 22.2 °C 22 °C 1008.4 hPa SSW 1.6 km/h 8 km/h 99 % 1.78 mm
05:49 22.2 °C 22 °C 1008.7 hPa SW 4.8 km/h 4.8 km/h 99 % 4.32 mm
05:54 22.1 °C 21.8 °C 1009.4 hPa SSE 6.4 km/h 8 km/h 98 % 8.38 mm
05:59 20.7 °C 19.7 °C 1009.4 hPa NNE 16.1 km/h 27.4 km/h 94 % 14.48 mm
06:04 19.4 °C 18.4 °C 1007 hPa WSW 9.7 km/h 37 km/h 94 % 23.62 mm
06:09 19.1 °C 18.3 °C 1007 hPa ESE 14.5 km/h 37 km/h 95 % 24.89 mm
06:14 19.7 °C 19.4 °C 1006.7 hPa SE 9.7 km/h 37 km/h 98 % 25.15 mm
06:19 20.6 °C 20.3 °C 1007.3 hPa SE 9.7 km/h 20.9 km/h 98 % 25.15 mm
06:24 20.8 °C 20.5 °C 1007.3 hPa SE 8 km/h 20.9 km/h 98 % 24.89 mm
06:29 20.8 °C 20.3 °C 1007.3 hPa SSE 4.8 km/h 20.9 km/h 97 % 24.64 mm
06:34 20.8 °C 20.3 °C 1007.3 hPa SSE 1.6 km/h 19.3 km/h 97 % 24.38 mm
06:39 20.7 °C 20.2 °C 1007.3 hPa SE 1.6 km/h 11.3 km/h 97 % 23.88 mm
06:44 20.7 °C 20.2 °C 1007.3 hPa ESE 1.6 km/h 8 km/h 97 % 23.37 mm
06:49 20.7 °C 20.2 °C 1007 hPa SE 4.8 km/h 6.4 km/h 97 % 20.83 mm
06:54 20.7 °C 20.4 °C 1007 hPa SE 3.2 km/h 6.4 km/h 98 % 16.26 mm
06:59 20.9 °C 20.6 °C 1006.7 hPa SE 4.8 km/h 8 km/h 98 % 10.16 mm
07:04 21 °C 20.7 °C 1007 hPa SE 3.2 km/h 9.7 km/h 98 % 1.02 mm
07:09 21.2 °C 20.9 °C 1007 hPa ESE 3.2 km/h 9.7 km/h 98 % 0.25 mm
07:14 21.3 °C 21 °C 1007 hPa ESE 4.8 km/h 9.7 km/h 98 % 0 mm
07:19 21.5 °C 21.2 °C 1007.3 hPa SSE 4.8 km/h 8 km/h 98 % 0 mm
07:24 21.6 °C 21.3 °C 1007.3 hPa Calm   9.7 km/h 98 % 0 mm
07:29 21.7 °C 21.5 °C 1008 hPa Calm   9.7 km/h 99 % 0 mm
07:34 21.8 °C 21.6 °C 1008 hPa Calm   9.7 km/h 99 % 0 mm
07:39 21.9 °C 21.6 °C 1008.4 hPa SSW 4.8 km/h 14.5 km/h 98 % 0 mm
07:44 21.9 °C 21.7 °C 1008 hPa SSE 1.6 km/h 14.5 km/h 99 % 0 mm
07:49 21.9 °C 21.7 °C 1007.7 hPa Calm   14.5 km/h 99 % 0 mm
07:54 22 °C 21.8 °C 1008.4 hPa SSW 1.6 km/h 6.4 km/h 99 % 0 mm
07:59 21.9 °C 21.6 °C 1009.4 hPa NW 30.6 km/h 30.6 km/h 98 % 0 mm
08:04 18.6 °C 16.4 °C 1009 hPa North 8 km/h 46.7 km/h 87 % 0 mm
08:09 17 °C 15.3 °C 1010.7 hPa NW 12.9 km/h 46.7 km/h 90 % 0 mm
08:14 16.2 °C 15.1 °C 1011.1 hPa WNW 12.9 km/h 46.7 km/h 93 % 1.78 mm
08:19 15.5 °C 14.5 °C 1010.7 hPa NNW 20.9 km/h 40.2 km/h 94 % 7.11 mm
08:24 14.9 °C 14.3 °C 1011.1 hPa North 8 km/h 24.1 km/h 96 % 12.19 mm
08:29 14.7 °C 14.2 °C 1011.1 hPa NW 6.4 km/h 30.6 km/h 97 % 16.26 mm
08:34 14.6 °C 14.1 °C 1011.1 hPa NW 1.6 km/h 30.6 km/h 97 % 18.03 mm
08:39 14.4 °C 14.1 °C 1011.7 hPa NW 4.8 km/h 30.6 km/h 98 % 19.05 mm
08:44 14.4 °C 14.1 °C 1011.7 hPa Calm   19.3 km/h 98 % 19.81 mm
08:49 14.4 °C 14.1 °C 1011.7 hPa Calm   19.3 km/h 98 % 20.32 mm
08:54 14.4 °C 14.1 °C 1011.7 hPa WNW 4.8 km/h 11.3 km/h 98 % 20.83 mm
08:59 14.4 °C 14.1 °C 1011.1 hPa NNW 4.8 km/h 11.3 km/h 98 % 21.08 mm
09:04 14.4 °C 14.1 °C 1011.1 hPa NW 4.8 km/h 12.9 km/h 98 % 22.35 mm
09:09 14.4 °C 14.2 °C 1011.1 hPa NW 4.8 km/h 17.7 km/h 99 % 22.35 mm
09:14 14.5 °C 14.3 °C 1011.1 hPa NNW 4.8 km/h 17.7 km/h 99 % 20.57 mm
09:19 14.6 °C 14.4 °C 1011.1 hPa NNW 1.6 km/h 17.7 km/h 99 % 14.73 mm
09:24 14.6 °C 14.4 °C 1011.4 hPa Calm   9.7 km/h 99 % 10.16 mm
09:30 14.6 °C 14.4 °C 1011.7 hPa Calm   9.7 km/h 99 % 5.84 mm
09:35 14.6 °C 14.4 °C 1011.7 hPa North 3.2 km/h 8 km/h 99 % 4.32 mm
09:40 14.7 °C 14.5 °C 1011.7 hPa North 3.2 km/h 8 km/h 99 % 3.3 mm
09:45 14.7 °C 14.5 °C 1011.7 hPa NNE 1.6 km/h 8 km/h 99 % 2.03 mm
09:50 14.8 °C 14.6 °C 1011.7 hPa North 1.6 km/h 8 km/h 99 % 1.52 mm
09:55 14.8 °C 14.6 °C 1011.4 hPa NW 1.6 km/h 6.4 km/h 99 % 1.27 mm
10:00 14.9 °C 14.7 °C 1011.4 hPa NW 1.6 km/h 6.4 km/h 99 % 0 mm
10:05 15 °C 14.8 °C 1011.7 hPa NW 3.2 km/h 6.4 km/h 99 % 0 mm
10:10 15.3 °C 15.1 °C 1011.7 hPa WNW 3.2 km/h 6.4 km/h 99 % 0 mm
10:15 15.3 °C 15.1 °C 1011.7 hPa Calm   6.4 km/h 99 % 0 mm
10:20 15.7 °C 15.5 °C 1012.1 hPa NNW 4.8 km/h 6.4 km/h 99 % 0 mm
10:25 15.7 °C 15.5 °C 1012.1 hPa WNW 1.6 km/h 6.4 km/h 99 % 0 mm
10:30 16 °C 15.8 °C 1012.1 hPa North 3.2 km/h 8 km/h 99 % 0 mm
10:35 16.1 °C 15.9 °C 1012.1 hPa NW 6.4 km/h 9.7 km/h 99 % 0 mm
10:40 16.2 °C 16 °C 1012.1 hPa WNW 1.6 km/h 9.7 km/h 99 % 0 mm
10:45 16.3 °C 16 °C 1012.1 hPa NW 3.2 km/h 9.7 km/h 98 % 0 mm
10:50 16.2 °C 15.7 °C 1012.1 hPa NW 4.8 km/h 11.3 km/h 97 % 0 mm
10:55 16.2 °C 15.7 °C 1012.1 hPa NW 1.6 km/h 11.3 km/h 97 % 0 mm
11:00 16.4 °C 15.8 °C 1012.4 hPa West 4.8 km/h 11.3 km/h 96 % 0 mm
11:05 16.8 °C 16.3 °C 1012.4 hPa WNW 3.2 km/h 9.7 km/h 97 % 0 mm
11:10 17.1 °C 16.1 °C 1012.4 hPa NNW 3.2 km/h 9.7 km/h 94 % 0 mm
11:15 17.4 °C 16.3 °C 1012.1 hPa WNW 1.6 km/h 9.7 km/h 93 % 0 mm
11:20 17.8 °C 16.3 °C 1012.1 hPa NW 4.8 km/h 8 km/h 91 % 0 mm
11:25 18.2 °C 16.4 °C 1011.7 hPa Calm   8 km/h 89 % 0 mm
11:30 18.6 °C 16.6 °C 1011.7 hPa SSW 1.6 km/h 8 km/h 88 % 0 mm
11:31 18.7 °C 16.7 °C 1011.7 hPa NW 3.2 km/h 8 km/h 88 % 0 mm
11:36 19 °C 16.6 °C 1011.7 hPa Calm   8 km/h 86 % 0 mm
11:41 19.3 °C 16.3 °C 1011.7 hPa Calm   6.4 km/h 83 % 0 mm
11:46 19.7 °C 16.3 °C 1011.7 hPa NW 4.8 km/h 9.7 km/h 81 % 0 mm
11:51 19.9 °C 16.1 °C 1011.7 hPa NNE 1.6 km/h 11.3 km/h 79 % 0 mm
11:56 20.1 °C 15.5 °C 1011.7 hPa NNW 4.8 km/h 11.3 km/h 75 % 0 mm
12:01 20.3 °C 15.7 °C 1011.7 hPa NNW 4.8 km/h 14.5 km/h 75 % 0 mm
12:06 20.3 °C 15.3 °C 1011.4 hPa NNW 4.8 km/h 14.5 km/h 73 % 0 mm
12:11 20.5 °C 15.3 °C 1011.4 hPa West 4.8 km/h 16.1 km/h 72 % 0 mm
12:17 20.6 °C 15.8 °C 1011.4 hPa WNW 4.8 km/h 16.1 km/h 74 % 0 mm
12:22 20.7 °C 15.7 °C 1011.4 hPa WSW 3.2 km/h 16.1 km/h 73 % 0 mm
12:27 20.9 °C 15.4 °C 1011.4 hPa Calm   14.5 km/h 71 % 0 mm
12:32 21.2 °C 15.7 °C 1011.1 hPa WSW 4.8 km/h 9.7 km/h 71 % 0 mm
12:37 21.2 °C 15.9 °C 1011.1 hPa NNW 4.8 km/h 12.9 km/h 72 % 0 mm
12:42 21.4 °C 16.1 °C 1011.1 hPa SW 3.2 km/h 12.9 km/h 72 % 0 mm
12:47 21.6 °C 15.7 °C 1011.1 hPa WNW 4.8 km/h 12.9 km/h 69 % 0 mm
12:52 21.8 °C 16.5 °C 1011.1 hPa WNW 3.2 km/h 12.9 km/h 72 % 0 mm
12:57 21.9 °C 16 °C 1011.1 hPa Calm   12.9 km/h 69 % 0 mm
13:02 22.1 °C 15.9 °C 1010.7 hPa WNW 4.8 km/h 12.9 km/h 68 % 0 mm
13:07 22.3 °C 16.6 °C 1010.7 hPa SSW 6.4 km/h 9.7 km/h 70 % 0 mm
13:12 22.5 °C 15.8 °C 1010.7 hPa WSW 3.2 km/h 9.7 km/h 66 % 0 mm
13:17 22.6 °C 15.4 °C 1010.7 hPa NE 3.2 km/h 14.5 km/h 64 % 0 mm
13:22 22.6 °C 14.2 °C 1010.7 hPa NW 4.8 km/h 14.5 km/h 59 % 0 mm
13:27 22.2 °C 14.8 °C 1010.7 hPa Calm   14.5 km/h 63 % 0 mm
13:32 22.6 °C 14.9 °C 1010.7 hPa WSW 4.8 km/h 12.9 km/h 62 % 0 mm
13:37 22.8 °C 15.1 °C 1010.7 hPa WSW 8 km/h 12.9 km/h 62 % 0 mm
13:42 22.7 °C 14.3 °C 1010.4 hPa West 11.3 km/h 19.3 km/h 59 % 0 mm
13:47 22.7 °C 13.7 °C 1010.7 hPa West 4.8 km/h 19.3 km/h 57 % 0 mm
13:52 22.9 °C 14.2 °C 1010.4 hPa Calm   19.3 km/h 58 % 0 mm
13:57 22.9 °C 14.7 °C 1010.4 hPa Calm   12.9 km/h 60 % 0 mm
14:02 23.1 °C 14.4 °C 1010.4 hPa SW 1.6 km/h 9.7 km/h 58 % 0 mm
14:07 23.1 °C 14.1 °C 1010.4 hPa NW 6.4 km/h 11.3 km/h 57 % 0 mm
14:12 22.8 °C 14.4 °C 1010.4 hPa SSW 4.8 km/h 11.3 km/h 59 % 0 mm
14:17 23.1 °C 13.6 °C 1010.4 hPa NW 4.8 km/h 11.3 km/h 55 % 0 mm
14:22 22.9 °C 13.4 °C 1010.4 hPa NNW 8 km/h 11.3 km/h 55 % 0 mm
14:27 22.9 °C 13.7 °C 1010.4 hPa NW 9.7 km/h 16.1 km/h 56 % 0 mm
14:32 22.7 °C 13.5 °C 1010 hPa North 4.8 km/h 16.1 km/h 56 % 0 mm
14:37 22.7 °C 13.7 °C 1010.4 hPa NNW 4.8 km/h 16.1 km/h 57 % 0 mm
14:42 22.8 °C 13.8 °C 1010 hPa West 4.8 km/h 12.9 km/h 57 % 0 mm
14:47 23.1 °C 13.8 °C 1010 hPa Calm   12.9 km/h 56 % 0 mm
14:52 23.2 °C 14.5 °C 1010 hPa SW 3.2 km/h 8 km/h 58 % 0 mm
14:57 23.3 °C 14 °C 1010 hPa West 3.2 km/h 8 km/h 56 % 0 mm
15:02 23.2 °C 13.7 °C 1010 hPa West 1.6 km/h 8 km/h 55 % 0 mm
15:07 23.3 °C 14.6 °C 1010 hPa West 1.6 km/h 6.4 km/h 58 % 0 mm
15:12 23.4 °C 14.4 °C 1010 hPa SSW 1.6 km/h 8 km/h 57 % 0 mm
15:17 23.6 °C 14 °C 1010 hPa Calm   8 km/h 55 % 0 mm
15:22 23.7 °C 13.8 °C 1010 hPa WSW 1.6 km/h 8 km/h 54 % 0 mm
15:27 23.7 °C 13.6 °C 1010 hPa North 3.2 km/h 6.4 km/h 53 % 0 mm
15:33 23.7 °C 13.3 °C 1010 hPa West 1.6 km/h 6.4 km/h 52 % 0 mm
15:38 23.7 °C 13.3 °C 1009.7 hPa WNW 1.6 km/h 6.4 km/h 52 % 0 mm
15:43 23.7 °C 13.6 °C 1010 hPa Calm   6.4 km/h 53 % 0 mm
15:48 23.7 °C 13.6 °C 1010 hPa SSW 3.2 km/h 6.4 km/h 53 % 0 mm
15:53 23.7 °C 13.8 °C 1010 hPa Calm   9.7 km/h 54 % 0 mm
15:58 23.6 °C 14 °C 1010 hPa SW 1.6 km/h 9.7 km/h 55 % 0 mm
16:03 23.7 °C 14.4 °C 1010 hPa South 1.6 km/h 9.7 km/h 56 % 0 mm
16:08 23.8 °C 14.5 °C 1010 hPa SSW 3.2 km/h 9.7 km/h 56 % 0 mm
16:13 23.8 °C 13.9 °C 1010.4 hPa SSW 1.6 km/h 6.4 km/h 54 % 0 mm
16:18 23.7 °C 13.8 °C 1010.4 hPa SW 3.2 km/h 8 km/h 54 % 0 mm
16:23 23.6 °C 14 °C 1010.4 hPa WSW 1.6 km/h 8 km/h 55 % 0 mm
16:28 23.4 °C 14.1 °C 1010.4 hPa SW 3.2 km/h 9.7 km/h 56 % 0 mm
16:33 23.3 °C 14 °C 1010.4 hPa SW 1.6 km/h 9.7 km/h 56 % 0 mm
16:38 23.1 °C 13.6 °C 1010.4 hPa WSW 3.2 km/h 9.7 km/h 55 % 0 mm
16:43 22.9 °C 13.4 °C 1010.7 hPa West 1.6 km/h 8 km/h 55 % 0 mm
16:48 22.8 °C 13.3 °C 1010.7 hPa SSW 1.6 km/h 8 km/h 55 % 0 mm
16:53 22.7 °C 13.5 °C 1010.7 hPa West 1.6 km/h 8 km/h 56 % 0 mm
16:58 22.6 °C 13.6 °C 1010.7 hPa Calm   8 km/h 57 % 0 mm
17:03 22.4 °C 13.5 °C 1010.7 hPa SW 3.2 km/h 8 km/h 57 % 0 mm
17:08 21.9 °C 13.5 °C 1011.1 hPa SW 1.6 km/h 8 km/h 59 % 0 mm
17:13 21.7 °C 13.3 °C 1010.7 hPa SSW 1.6 km/h 4.8 km/h 59 % 0 mm
17:18 21.3 °C 13.5 °C 1010.7 hPa Calm   4.8 km/h 61 % 0 mm
17:23 21.1 °C 13.5 °C 1010.7 hPa SSW 1.6 km/h 4.8 km/h 62 % 0 mm
17:28 20.8 °C 13.5 °C 1010.7 hPa Calm   6.4 km/h 63 % 0 mm
17:33 20.4 °C 13.4 °C 1010.7 hPa Calm   6.4 km/h 64 % 0 mm
17:38 20.1 °C 13.3 °C 1010.7 hPa Calm   6.4 km/h 65 % 0 mm
17:43 19.7 °C 12.9 °C 1011.1 hPa Calm   1.6 km/h 65 % 0 mm
17:48 19.3 °C 13 °C 1011.1 hPa Calm     67 % 0 mm
17:53 19.1 °C 13.1 °C 1011.1 hPa Calm     68 % 0 mm
17:58 18.7 °C 12.9 °C 1011.1 hPa Calm     69 % 0 mm
18:03 18.3 °C 12.7 °C 1011.1 hPa Calm     70 % 0 mm
18:08 18.1 °C 13.2 °C 1011.1 hPa Calm     73 % 0 mm
18:13 17.8 °C 12.9 °C 1011.1 hPa Calm     73 % 0 mm
18:18 17.6 °C 12.9 °C 1011.1 hPa Calm     74 % 0 mm
18:23 17.3 °C 12.6 °C 1011.1 hPa Calm     74 % 0 mm
18:28 17.1 °C 12.8 °C 1011.1 hPa Calm     76 % 0 mm
18:33 16.8 °C 12.9 °C 1011.1 hPa Calm     78 % 0 mm
18:38 16.6 °C 12.9 °C 1011.1 hPa Calm     79 % 0 mm
18:43 16.3 °C 12.7 °C 1011.1 hPa Calm     79 % 0 mm
18:48 16.1 °C 12.8 °C 1011.1 hPa Calm     81 % 0 mm
18:53 16 °C 13.3 °C 1011.1 hPa Calm     84 % 0 mm
18:58 16 °C 13.3 °C 1011.4 hPa Calm     84 % 0 mm
19:03 15.8 °C 13.1 °C 1011.4 hPa Calm     84 % 0 mm
19:08 15.7 °C 13 °C 1011.7 hPa Calm     84 % 0 mm
19:13 15.6 °C 13.3 °C 1011.4 hPa Calm     86 % 0 mm
19:18 15.6 °C 13.3 °C 1011.4 hPa Calm     86 % 0 mm
19:23 15.5 °C 13.2 °C 1011.7 hPa Calm     86 % 0 mm
19:28 15.3 °C 13 °C 1011.7 hPa Calm     86 % 0 mm
19:33 15.1 °C 13 °C 1011.7 hPa Calm     87 % 0 mm
19:38 15 °C 12.9 °C 1011.7 hPa Calm     87 % 0 mm
19:44 15 °C 13 °C 1011.7 hPa Calm     88 % 0 mm
19:49 14.9 °C 12.9 °C 1011.7 hPa Calm     88 % 0 mm
19:54 14.7 °C 12.7 °C 1011.7 hPa Calm     88 % 0 mm
19:59 14.5 °C 12.7 °C 1011.7 hPa Calm     89 % 0 mm
20:04 14.3 °C 12.5 °C 1011.7 hPa Calm     89 % 0 mm
20:09 14.2 °C 12.6 °C 1011.7 hPa Calm     90 % 0 mm
20:14 14.2 °C 12.8 °C 1011.7 hPa Calm     91 % 0 mm
20:19 14.3 °C 12.9 °C 1012.1 hPa Calm   1.6 km/h 91 % 0 mm
20:24 14.2 °C 12.6 °C 1012.4 hPa Calm   1.6 km/h 90 % 0 mm
20:29 14.1 °C 12.7 °C 1012.4 hPa Calm   1.6 km/h 91 % 0 mm
20:34 14 °C 12.7 °C 1012.8 hPa Calm     92 % 0 mm
20:39 14.1 °C 12.8 °C 1012.8 hPa Calm     92 % 0 mm
20:44 14.2 °C 12.9 °C 1012.8 hPa Calm     92 % 0 mm
20:49 14.1 °C 12.7 °C 1013.1 hPa Calm     91 % 0 mm
20:54 13.8 °C 12.4 °C 1013.1 hPa Calm     91 % 0 mm
20:59 13.8 °C 12.5 °C 1013.1 hPa Calm     92 % 0 mm
21:04 13.7 °C 12.4 °C 1013.1 hPa Calm     92 % 0 mm
21:09 13.7 °C 12.4 °C 1013.1 hPa Calm     92 % 0 mm
21:14 13.6 °C 12.2 °C 1013.1 hPa Calm     91 % 0 mm
21:19 13.5 °C 12.1 °C 1013.1 hPa Calm     91 % 0 mm
21:22 13.4 °C 12 °C 1013.1 hPa Calm     91 % 0 mm
21:27 13.3 °C 12 °C 1013.1 hPa Calm     92 % 0 mm
21:32 13.6 °C 12.5 °C 1013.1 hPa Calm     93 % 0 mm
21:37 13.7 °C 12.4 °C 1013.1 hPa Calm     92 % 0 mm
21:42 13.6 °C 12.3 °C 1013.4 hPa Calm     92 % 0 mm
21:47 13.5 °C 12.2 °C 1013.4 hPa Calm     92 % 0 mm
21:52 13.4 °C 12 °C 1013.4 hPa Calm     91 % 0 mm
21:57 13.4 °C 12.1 °C 1013.4 hPa Calm     92 % 0 mm
22:02 13.4 °C 12 °C 1013.4 hPa Calm   1.6 km/h 91 % 0 mm
22:07 13.3 °C 12 °C 1013.1 hPa Calm   1.6 km/h 92 % 0 mm
22:12 13.3 °C 12 °C 1013.4 hPa Calm   1.6 km/h 92 % 0 mm
22:17 13.3 °C 12 °C 1013.1 hPa Calm   1.6 km/h 92 % 0 mm
22:22 13.2 °C 11.9 °C 1013.1 hPa Calm     92 % 0 mm
22:27 13.1 °C 11.8 °C 1013.1 hPa Calm     92 % 0 mm
22:32 12.9 °C 11.6 °C 1013.1 hPa Calm     92 % 0 mm
22:37 12.8 °C 11.7 °C 1013.1 hPa Calm     93 % 0 mm
22:42 12.8 °C 11.7 °C 1013.4 hPa Calm     93 % 0 mm
22:47 12.6 °C 11.3 °C 1013.4 hPa Calm     92 % 0 mm
22:52 12.6 °C 11.5 °C 1013.1 hPa Calm     93 % 0 mm
22:57 12.7 °C 11.6 °C 1013.1 hPa Calm     93 % 0 mm
23:02 12.7 °C 11.6 °C 1013.4 hPa Calm     93 % 0 mm
23:07 12.6 °C 11.5 °C 1013.4 hPa Calm     93 % 0 mm
23:12 12.6 °C 11.7 °C 1013.4 hPa Calm     94 % 0 mm
23:17 12.4 °C 11.5 °C 1013.4 hPa Calm     94 % 0 mm
23:22 12.3 °C 11.4 °C 1013.4 hPa Calm     94 % 0 mm
23:27 12.1 °C 11.2 °C 1013.8 hPa Calm     94 % 0 mm
23:32 11.9 °C 11 °C 1013.4 hPa Calm     94 % 0 mm
23:37 11.8 °C 10.9 °C 1013.8 hPa Calm     94 % 0 mm
23:42 11.8 °C 10.9 °C 1013.4 hPa Calm     94 % 0 mm
23:47 11.9 °C 11.1 °C 1013.8 hPa Calm     95 % 0 mm
23:52 11.9 °C 11.1 °C 1013.8 hPa Calm     95 % 0 mm
23:57 11.8 °C 10.9 °C 1013.8 hPa Calm     94 % 0 mm
Spring, Texas: Villages of Bridgestone
Compliments of Weather Underground - 2.75 mb

Script developed by  Jim McMurry - jmcmurry@mwt.net Adapted for the template by  Wim van der Kuil - Leuven-Template.eu

You find our weather info also at:

UK Metoffice

WeatherCloud

Weather Underground

Mid-South Weather Network

AWEKAS

Citizen Weather Observer Program (CWOP)

HAMweather, WeatherForYou, PWS Weather

Equipment we use:

Weather-station
Davis Vantage Vue

Weather-program
Meteohub

Weather-server
Debian 7.9 x86 (Guest)

Provider
DreamHost

Davis Vantage Vue

Meteohub

Debian 7.9 x86 (Guest)

DreamHost